SAT weather

San Antonio International Airport
San Antonio, Texas, United States

Public forecast

Using degrees Fahrenheit for public forecast. Weather courtesy of forecast.io.

Current aviation weather report (METAR) for San Antonio International Airport

Retrieved 2019/10/21 23:51 UTC (44 minutes ago):

KSAT 212351Z 02005KT 10SM FEW250 24/02 A2992 RMK AO2 SLP115 T02390022 10278 20239 53007

Aviation forecast (TAF) for San Antonio International Airport

Retrieved 2019-10-22 00:34 UTC (1 minute ago):

TAF KSAT 212332Z 2200/2306 36004KT P6SM SKC FM221700 10007KT P6SM SKC FM230200 15007KT P6SM SKC